Rexville, New York
Current Conditions -  °F | °C
As of 4:56 PM on Saturday 20 Dec 2014 (Local Time) from KELZ Reporting Station
Overcast Overcast  
Wind Chill: 25°   Ceiling: 1300
Heat Index: 25°   Visibility: 10mi
Dew Point: 18°   Wind: 3mph
Humidity: 75%   Direction: 260°W
Pressure: 30.18"   Gusts: NA
Location:  42.08°N, 77.66°W
Report Text: KELZ 202156Z AUTO 26003KT 10SM OVC013 M04/M08 A3018 RMK AO2 SLP253 T10391078
Loading
Personal Weather Stations






























Interactive Weather Map New forecast layout! Learn more

10-Day Weather Forecast

Advertisements
Track Severe Weather on mobile